Aérodrome :
LOGIN :

S'inscrire | Disclaimer

   EN    FR    IT 

 










Légende :    VFR   VFR Marginal   IFR   IFR Intensif   IFR Très Intensif
Visi : 
Plafond : 
>= 8 km
>= 3000ft
5 à 8 km
1000 à 3000 ft
1500m à 5 km
500 à 1000 ft
800 à 1500m
200 à 500 ft
< 800m
< 200 ft
Symboles :   Orages  Brouillard  Fortes neiges  Fortes précipitations  Vent > 20 kt
SIGMETs :   Divers  Orages  Givrage  Turbulence  Onde Orograph.  Cendres Volcan.







- Altitude de l'aérodrome : 278 ft
- Code IATA : RJK


LDRI - Rijeka

DERNIER METAR :
  • 141700Z 34003KT 9999 FEW020 23/19 Q1013

METARs EXPIRÉS :
  • 141630Z 35003KT 9999 FEW020 23/18 Q1013
  • 141600Z 36003KT 9999 FEW015 SCT050 23/18 Q1013
  • 141530Z 34006KT 310V010 9999 FEW015 SCT050 23/19 Q1013
  • 141500Z 34006KT 9999 FEW015 22/19 Q1013
  • 141430Z VRB03KT 9999 FEW005 BKN050 21/19 Q1013

TAF TAF LDRI
Valide du 14 à 12h jusqu'au 15 à 12h UTC


141126Z 1412/1512 VRB07KT 9999 FEW035 TX26/1414Z TN20/1503Z
TEMPO 1412/1420 VRB15G25KT TSRA FEW030CB SCT035
BECMG 1503/1505 05008G18KT
Pas de NOTAMs connus pour ce terrain.



MET'MAP, la Météo Aéronautique d'un coup d'oeil ! - Copyright ORBIFLY Décembre 2007 - Disclaimer

ORBIFLY MET'MAP TEAM :

Programmation & Développement : Alexandra Zaïnal
Conception & Développement : Baudouin d'Aumeries
Co-Programmation & Développement : Marc-Olivier Méhu
Soutien technique & logistique : Manuel Goepfert

Contact : metmap@orbifly.com




SOURCES & CREDITS :

   NOAA